Time;durP1;ratioP1;P1;durP2;ratioP2;P2;SDS_P1;SDS_P2;PMS_P1;PMS_P2;Temp;Humidity;BMP_temperature;BMP_pressure;BME280_temperature;BME280_humidity;BME280_pressure;Samples;Min_cycle;Max_cycle;Signal;HPM_P1;HPM_P2
2023/07/09 00:01:54;;;;;;;;;;;18.80;99.90;;;;;;6275385;22;20001;-83
2023/07/09 00:04:20;;;;;;;;;;;18.80;99.90;;;;;;6249794;22;19903;-82
2023/07/09 00:06:46;;;;;;;;;;;18.80;99.90;;;;;;6279829;22;20388;-83
2023/07/09 00:09:17;;;;;;;;;;;18.80;99.90;;;;;;6281548;22;19910;-83
2023/07/09 00:11:43;;;;;;;;;;;18.70;99.90;;;;;;6281124;22;19903;-83
2023/07/09 00:14:13;;;;;;;;;;;18.70;99.90;;;;;;6289333;22;19903;-83
2023/07/09 00:17:16;;;;;;;;;;;18.60;99.90;;;;;;6304213;22;19983;-83
2023/07/09 00:19:44;;;;;;;;;;;18.60;99.90;;;;;;6276773;22;19903;-82
2023/07/09 00:22:16;;;;;;;;;;;18.70;99.90;;;;;;6275391;22;19918;-83
2023/07/09 00:27:49;;;;;;;;;;;18.80;99.90;;;;;;6301777;22;19904;-82
2023/07/09 00:30:18;;;;;;;;;;;18.90;99.90;;;;;;6275691;22;20307;-83
2023/07/09 00:32:43;;;;;;;;;;;18.90;99.90;;;;;;6301008;22;19907;-83
2023/07/09 00:35:15;;;;;;;;;;;18.80;99.90;;;;;;6300901;22;19910;-82
2023/07/09 00:37:42;;;;;;;;;;;18.80;99.90;;;;;;6301001;22;19903;-83
2023/07/09 00:40:19;;;;;;;;;;;18.80;99.90;;;;;;6274820;22;19961;-83
2023/07/09 00:42:46;;;;;;;;;;;18.70;99.90;;;;;;6274950;22;20341;-83
2023/07/09 00:45:23;;;;;;;;;;;18.60;99.90;;;;;;6275329;22;19929;-83
2023/07/09 00:47:49;;;;;;;;;;;18.60;99.90;;;;;;6276832;22;20334;-82
2023/07/09 00:50:21;;;;;;;;;;;18.50;99.90;;;;;;6274761;22;19908;-83
2023/07/09 00:52:53;;;;;;;;;;;18.50;99.90;;;;;;6249362;22;19903;-83
2023/07/09 00:55:22;;;;;;;;;;;18.40;99.90;;;;;;6274735;22;19910;-83
2023/07/09 00:57:56;;;;;;;;;;;18.40;99.90;;;;;;6274235;22;19966;-83
2023/07/09 01:00:24;;;;;;;;;;;18.30;99.90;;;;;;6274461;22;19990;-83
2023/07/09 01:02:50;;;;;;;;;;;18.40;99.90;;;;;;6251252;22;20241;-82
2023/07/09 01:05:31;;;;;;;;;;;18.30;99.90;;;;;;6277183;22;19903;-83
2023/07/09 01:08:00;;;;;;;;;;;18.20;99.90;;;;;;6251868;22;19903;-83
2023/07/09 01:10:25;;;;;;;;;;;18.20;99.90;;;;;;6275659;22;19982;-82
2023/07/09 01:12:51;;;;;;;;;;;18.20;99.90;;;;;;6276540;22;20279;-83
2023/07/09 01:15:17;;;;;;;;;;;18.10;99.90;;;;;;6276493;22;19911;-83
2023/07/09 01:17:45;;;;;;;;;;;18.10;99.90;;;;;;6276394;22;19984;-83
2023/07/09 01:20:20;;;;;;;;;;;18.10;99.90;;;;;;6302124;22;19946;-82
2023/07/09 01:22:48;;;;;;;;;;;18.10;99.90;;;;;;6276225;22;19964;-83
2023/07/09 01:25:14;;;;;;;;;;;18.00;99.90;;;;;;6251160;22;20339;-83
2023/07/09 01:27:41;;;;;;;;;;;18.00;99.90;;;;;;6276225;22;19938;-82
2023/07/09 01:30:09;;;;;;;;;;;17.90;99.90;;;;;;6276161;22;19910;-83
2023/07/09 01:32:37;;;;;;;;;;;17.90;99.90;;;;;;6301794;22;19944;-83
2023/07/09 01:35:06;;;;;;;;;;;17.80;99.90;;;;;;6275820;22;20270;-83
2023/07/09 01:37:34;;;;;;;;;;;17.80;99.90;;;;;;6275635;22;19910;-82
2023/07/09 01:40:00;;;;;;;;;;;17.80;99.90;;;;;;6275608;22;19903;-83
2023/07/09 01:42:28;;;;;;;;;;;17.70;99.90;;;;;;6301772;22;19914;-82
2023/07/09 01:44:54;;;;;;;;;;;17.70;99.90;;;;;;6301468;22;19903;-83
2023/07/09 01:47:20;;;;;;;;;;;17.70;99.90;;;;;;6275418;22;20312;-83
2023/07/09 01:49:46;;;;;;;;;;;17.70;99.90;;;;;;6275291;22;19903;-83
2023/07/09 01:52:13;;;;;;;;;;;17.60;99.90;;;;;;6249665;22;20462;-82
2023/07/09 01:54:39;;;;;;;;;;;17.60;99.90;;;;;;6274759;22;19907;-83
2023/07/09 01:57:22;;;;;;;;;;;17.70;99.90;;;;;;6275130;22;19907;-83
2023/07/09 01:59:49;;;;;;;;;;;17.60;99.90;;;;;;6275457;22;19915;-83
2023/07/09 02:02:18;;;;;;;;;;;17.70;99.90;;;;;;6275504;22;19962;-83
2023/07/09 02:04:51;;;;;;;;;;;17.70;99.90;;;;;;6275731;22;19903;-83
2023/07/09 02:07:18;;;;;;;;;;;17.70;99.90;;;;;;6275747;22;19977;-83
2023/07/09 02:09:59;;;;;;;;;;;17.70;99.90;;;;;;6275629;22;20334;-83
2023/07/09 02:12:25;;;;;;;;;;;17.70;99.90;;;;;;6277581;22;19935;-83
2023/07/09 02:14:51;;;;;;;;;;;17.60;99.90;;;;;;6249970;22;20000;-83
2023/07/09 02:17:16;;;;;;;;;;;17.60;99.90;;;;;;6250220;22;19903;-82
2023/07/09 02:19:42;;;;;;;;;;;17.60;99.90;;;;;;6276008;22;19903;-83
2023/07/09 02:22:08;;;;;;;;;;;17.60;99.90;;;;;;6275596;22;19961;-82
2023/07/09 02:24:34;;;;;;;;;;;17.60;99.90;;;;;;6275631;22;19903;-83
2023/07/09 02:27:01;;;;;;;;;;;17.60;99.90;;;;;;6275645;22;19907;-83
2023/07/09 02:29:27;;;;;;;;;;;17.60;99.90;;;;;;6275080;22;19903;-83
2023/07/09 02:31:54;;;;;;;;;;;17.60;99.90;;;;;;6275611;22;20270;-83
2023/07/09 02:34:21;;;;;;;;;;;17.50;99.90;;;;;;6275660;22;20196;-83
2023/07/09 02:36:47;;;;;;;;;;;17.50;99.90;;;;;;6301388;22;20270;-83
2023/07/09 02:39:13;;;;;;;;;;;17.50;99.90;;;;;;6275525;22;19903;-82
2023/07/09 02:41:39;;;;;;;;;;;17.50;99.90;;;;;;6275449;22;20497;-83
2023/07/09 02:44:06;;;;;;;;;;;17.50;99.90;;;;;;6274868;22;20001;-83
2023/07/09 02:46:32;;;;;;;;;;;17.50;99.90;;;;;;6301314;22;19907;-83
2023/07/09 02:48:58;;;;;;;;;;;17.40;99.90;;;;;;6275651;22;19984;-83
2023/07/09 02:51:26;;;;;;;;;;;17.40;99.90;;;;;;6275501;22;19911;-83
2023/07/09 02:53:56;;;;;;;;;;;17.50;99.90;;;;;;6275438;22;20323;-83
2023/07/09 02:56:22;;;;;;;;;;;17.50;99.90;;;;;;6275314;22;20281;-83
2023/07/09 02:58:49;;;;;;;;;;;17.50;99.90;;;;;;6275677;22;19953;-83
2023/07/09 03:01:14;;;;;;;;;;;17.50;99.90;;;;;;6275226;22;19930;-83
2023/07/09 03:03:40;;;;;;;;;;;17.50;99.90;;;;;;6249765;22;19906;-83
2023/07/09 03:06:06;;;;;;;;;;;17.50;99.90;;;;;;6275160;22;19907;-83
2023/07/09 03:08:32;;;;;;;;;;;17.40;99.90;;;;;;6275084;22;19903;-83
2023/07/09 03:10:58;;;;;;;;;;;17.40;99.90;;;;;;6274704;22;20045;-83
2023/07/09 03:13:24;;;;;;;;;;;17.40;99.90;;;;;;6275298;22;19907;-83
2023/07/09 03:15:56;;;;;;;;;;;17.50;99.90;;;;;;6275174;22;19900;-82
2023/07/09 03:18:22;;;;;;;;;;;17.40;99.90;;;;;;6275154;22;19903;-83
2023/07/09 03:20:48;;;;;;;;;;;17.40;99.90;;;;;;6274834;22;20337;-83
2023/07/09 03:23:13;;;;;;;;;;;17.40;99.90;;;;;;6275807;22;19903;-83
2023/07/09 03:25:40;;;;;;;;;;;17.40;99.90;;;;;;6275020;22;19934;-83
2023/07/09 03:28:06;;;;;;;;;;;17.40;99.90;;;;;;6275272;22;19910;-82
2023/07/09 03:30:32;;;;;;;;;;;17.30;99.90;;;;;;6275407;22;20231;-85
2023/07/09 03:32:57;;;;;;;;;;;17.40;99.90;;;;;;6274918;22;19910;-85
2023/07/09 03:35:23;;;;;;;;;;;17.40;99.90;;;;;;6275115;22;19907;-85
2023/07/09 03:37:49;;;;;;;;;;;17.40;99.90;;;;;;6249958;22;19903;-85
2023/07/09 03:40:20;;;;;;;;;;;17.40;99.90;;;;;;6249661;22;20386;-84
2023/07/09 03:42:46;;;;;;;;;;;17.40;99.90;;;;;;6250013;22;19993;-85
2023/07/09 03:45:11;;;;;;;;;;;17.50;99.90;;;;;;6250109;22;19958;-85
2023/07/09 03:47:37;;;;;;;;;;;17.50;99.90;;;;;;6249894;22;19953;-85
2023/07/09 03:50:05;;;;;;;;;;;17.50;99.90;;;;;;6250137;22;20311;-85
2023/07/09 03:52:33;;;;;;;;;;;17.50;99.90;;;;;;6301243;22;19899;-85
2023/07/09 03:55:00;;;;;;;;;;;17.60;99.90;;;;;;6275579;22;19903;-85
2023/07/09 03:57:26;;;;;;;;;;;17.60;99.90;;;;;;6275284;22;19900;-84
2023/07/09 03:59:52;;;;;;;;;;;17.60;99.90;;;;;;6275443;22;19903;-85
2023/07/09 04:02:18;;;;;;;;;;;17.70;99.90;;;;;;6275320;22;19914;-85
2023/07/09 04:04:44;;;;;;;;;;;17.80;99.90;;;;;;6275943;22;19904;-85
2023/07/09 04:07:10;;;;;;;;;;;17.80;99.90;;;;;;6275736;22;19903;-85
2023/07/09 04:09:35;;;;;;;;;;;17.80;99.90;;;;;;6275891;22;20366;-86
2023/07/09 04:12:02;;;;;;;;;;;17.90;99.90;;;;;;6275575;22;19934;-85
2023/07/09 04:14:29;;;;;;;;;;;17.90;99.90;;;;;;6276374;22;20370;-85
2023/07/09 04:16:54;;;;;;;;;;;17.90;99.90;;;;;;6276892;22;19956;-85
2023/07/09 04:19:20;;;;;;;;;;;17.90;99.90;;;;;;6276084;22;19911;-85
2023/07/09 04:21:46;;;;;;;;;;;18.00;99.90;;;;;;6275633;22;19966;-85
2023/07/09 04:24:16;;;;;;;;;;;18.00;99.90;;;;;;6258003;22;19906;-84
2023/07/09 04:26:42;;;;;;;;;;;18.10;99.90;;;;;;6252893;22;19949;-85
2023/07/09 04:29:08;;;;;;;;;;;18.20;99.90;;;;;;6275755;22;19938;-85
2023/07/09 04:31:34;;;;;;;;;;;18.30;99.90;;;;;;6275751;22;19904;-85
2023/07/09 04:33:59;;;;;;;;;;;18.40;99.90;;;;;;6275713;22;19903;-85
2023/07/09 04:36:26;;;;;;;;;;;18.50;99.90;;;;;;6249447;22;19952;-85
2023/07/09 04:38:51;;;;;;;;;;;18.60;99.90;;;;;;6276915;22;20342;-85
2023/07/09 04:41:17;;;;;;;;;;;18.60;99.90;;;;;;6276776;22;19908;-84
2023/07/09 04:43:43;;;;;;;;;;;18.70;99.90;;;;;;6276997;22;19903;-85
2023/07/09 04:46:09;;;;;;;;;;;18.80;99.90;;;;;;6277081;22;19949;-85
2023/07/09 04:48:34;;;;;;;;;;;18.90;99.90;;;;;;6303200;22;19938;-84
2023/07/09 04:51:00;;;;;;;;;;;19.00;99.90;;;;;;6277110;22;19903;-85
2023/07/09 04:53:32;;;;;;;;;;;19.10;99.90;;;;;;6277148;22;19965;-85
2023/07/09 04:55:58;;;;;;;;;;;19.20;99.90;;;;;;6251934;22;19910;-85
2023/07/09 04:58:23;;;;;;;;;;;19.30;99.90;;;;;;6276366;22;19899;-85
2023/07/09 05:00:50;;;;;;;;;;;19.40;99.90;;;;;;6250761;22;19926;-86
2023/07/09 05:03:17;;;;;;;;;;;19.50;99.90;;;;;;6276256;22;19911;-85
2023/07/09 05:05:44;;;;;;;;;;;19.60;99.90;;;;;;6251230;22;19903;-85
2023/07/09 05:08:09;;;;;;;;;;;19.70;99.90;;;;;;6276227;22;19907;-85
2023/07/09 05:10:40;;;;;;;;;;;19.80;99.90;;;;;;6276760;22;19907;-85
2023/07/09 05:13:06;;;;;;;;;;;19.90;99.90;;;;;;6251442;22;19982;-85
2023/07/09 05:15:32;;;;;;;;;;;20.00;99.90;;;;;;6276887;22;19953;-85
2023/07/09 05:17:57;;;;;;;;;;;20.10;99.90;;;;;;6276644;22;19904;-85
2023/07/09 05:20:24;;;;;;;;;;;20.30;99.90;;;;;;6251014;22;19907;-86
2023/07/09 05:22:50;;;;;;;;;;;20.40;99.90;;;;;;6276822;22;19915;-85
2023/07/09 05:25:16;;;;;;;;;;;20.60;99.90;;;;;;6276267;22;19956;-85
2023/07/09 05:27:42;;;;;;;;;;;20.70;99.90;;;;;;6276629;22;19907;-85
2023/07/09 05:30:08;;;;;;;;;;;20.90;99.90;;;;;;6276020;22;19914;-86
2023/07/09 05:32:35;;;;;;;;;;;21.10;99.90;;;;;;6276223;22;19957;-85
2023/07/09 05:35:01;;;;;;;;;;;21.30;99.90;;;;;;6302587;22;20204;-85
2023/07/09 05:37:26;;;;;;;;;;;21.40;99.90;;;;;;6276388;22;19899;-85
2023/07/09 05:39:52;;;;;;;;;;;21.60;99.90;;;;;;6276432;22;19983;-86
2023/07/09 05:42:18;;;;;;;;;;;21.80;99.90;;;;;;6251087;22;20281;-85
2023/07/09 05:44:44;;;;;;;;;;;21.90;99.90;;;;;;6276008;22;19907;-86
2023/07/09 05:47:09;;;;;;;;;;;22.10;99.90;;;;;;6250977;22;19907;-85
2023/07/09 05:49:35;;;;;;;;;;;22.20;99.90;;;;;;6250704;22;19907;-85
2023/07/09 05:52:01;;;;;;;;;;;22.30;99.90;;;;;;6276426;22;19903;-85
2023/07/09 05:54:26;;;;;;;;;;;22.50;99.90;;;;;;6276409;22;19903;-85
2023/07/09 05:56:52;;;;;;;;;;;22.60;99.90;;;;;;6250700;22;20005;-86
2023/07/09 05:59:18;;;;;;;;;;;22.70;99.90;;;;;;6277179;22;20226;-85
2023/07/09 06:01:44;;;;;;;;;;;22.90;99.90;;;;;;6276117;22;19907;-86
2023/07/09 06:04:34;;;;;;;;;;;23.00;99.90;;;;;;6276103;22;19910;-85
2023/07/09 06:07:00;;;;;;;;;;;23.10;99.90;;;;;;6275812;22;19907;-85
2023/07/09 06:12:53;;;;;;;;;;;23.30;99.90;;;;;;6278090;22;19929;-85
2023/07/09 06:15:19;;;;;;;;;;;23.50;99.90;;;;;;6276056;22;19914;-85
2023/07/09 06:17:45;;;;;;;;;;;23.60;99.90;;;;;;6276196;22;20376;-86
2023/07/09 06:20:11;;;;;;;;;;;23.70;99.90;;;;;;6250452;22;19907;-86
2023/07/09 06:22:58;;;;;;;;;;;23.90;99.90;;;;;;6275677;22;19914;-86
2023/07/09 06:25:24;;;;;;;;;;;24.00;99.90;;;;;;6275774;22;19903;-86
2023/07/09 06:27:50;;;;;;;;;;;24.20;99.90;;;;;;6250210;22;20365;-85
2023/07/09 06:30:17;;;;;;;;;;;24.30;99.90;;;;;;6249819;22;19903;-86
2023/07/09 06:32:43;;;;;;;;;;;24.40;99.90;;;;;;6275175;22;20031;-86
2023/07/09 06:35:09;;;;;;;;;;;24.60;99.90;;;;;;6275873;22;19907;-85
2023/07/09 06:37:34;;;;;;;;;;;24.60;99.90;;;;;;6250327;22;20271;-86
2023/07/09 06:40:02;;;;;;;;;;;24.70;99.90;;;;;;6250328;22;20387;-85
2023/07/09 06:42:28;;;;;;;;;;;24.80;99.90;;;;;;6275813;22;19925;-86
2023/07/09 06:45:03;;;;;;;;;;;25.00;99.90;;;;;;6251858;22;20204;-86
2023/07/09 06:47:29;;;;;;;;;;;25.10;99.90;;;;;;6301773;22;19903;-85
2023/07/09 06:49:54;;;;;;;;;;;25.30;99.90;;;;;;6249792;22;20235;-86
2023/07/09 06:52:20;;;;;;;;;;;25.40;99.90;;;;;;6275494;22;19967;-86
2023/07/09 06:54:46;;;;;;;;;;;25.50;99.90;;;;;;6250120;22;19965;-86
2023/07/09 06:57:12;;;;;;;;;;;25.60;99.90;;;;;;6275021;22;20319;-85
2023/07/09 06:59:38;;;;;;;;;;;25.70;99.90;;;;;;6249173;22;19907;-86
2023/07/09 07:02:04;;;;;;;;;;;25.70;99.90;;;;;;6275008;22;20329;-86
2023/07/09 07:04:30;;;;;;;;;;;25.70;99.90;;;;;;6275269;22;19903;-85
2023/07/09 07:06:56;;;;;;;;;;;25.80;99.90;;;;;;6275449;22;20286;-86
2023/07/09 07:09:23;;;;;;;;;;;25.80;99.90;;;;;;6275456;22;19978;-86
2023/07/09 07:11:49;;;;;;;;;;;25.80;99.90;;;;;;6275455;22;19910;-86
2023/07/09 07:14:15;;;;;;;;;;;25.90;99.90;;;;;;6275835;22;19907;-85
2023/07/09 07:16:41;;;;;;;;;;;26.00;99.90;;;;;;6249971;22;19931;-85
2023/07/09 07:19:06;;;;;;;;;;;25.90;99.90;;;;;;6275474;22;20349;-86
2023/07/09 07:21:35;;;;;;;;;;;26.00;99.90;;;;;;6300998;22;19978;-86
2023/07/09 07:24:01;;;;;;;;;;;26.20;99.90;;;;;;6275709;22;19906;-85
2023/07/09 07:26:27;;;;;;;;;;;26.80;99.90;;;;;;6250244;22;19953;-86
2023/07/09 07:28:52;;;;;;;;;;;27.90;99.90;;;;;;6275913;22;19910;-86
2023/07/09 07:31:18;;;;;;;;;;;29.30;99.90;;;;;;6275348;22;19903;-85
2023/07/09 07:33:44;;;;;;;;;;;30.30;98.60;;;;;;6275389;22;20091;-86
2023/07/09 07:36:10;;;;;;;;;;;31.50;97.00;;;;;;6275743;22;19914;-86
2023/07/09 07:38:36;;;;;;;;;;;32.30;94.30;;;;;;6275456;22;19903;-86
2023/07/09 07:41:02;;;;;;;;;;;32.70;93.00;;;;;;6249633;22;19907;-86
2023/07/09 07:43:28;;;;;;;;;;;32.20;91.60;;;;;;6249831;22;20269;-85
2023/07/09 07:45:53;;;;;;;;;;;31.20;92.80;;;;;;6275141;22;19903;-86
2023/07/09 07:48:19;;;;;;;;;;;30.30;93.20;;;;;;6274934;22;19993;-85
2023/07/09 07:50:47;;;;;;;;;;;29.40;94.20;;;;;;6275034;22;19911;-86
2023/07/09 07:53:15;;;;;;;;;;;28.90;94.40;;;;;;6275208;22;20319;-85
2023/07/09 07:55:41;;;;;;;;;;;28.60;94.80;;;;;;6275108;22;19907;-86
2023/07/09 07:58:09;;;;;;;;;;;28.40;95.40;;;;;;6249956;22;19988;-86
2023/07/09 08:00:34;;;;;;;;;;;28.40;94.80;;;;;;6275603;22;19994;-86
2023/07/09 08:03:00;;;;;;;;;;;28.50;94.40;;;;;;6250086;22;19959;-86
2023/07/09 08:05:26;;;;;;;;;;;29.60;93.90;;;;;;6249789;22;19973;-85
2023/07/09 08:07:52;;;;;;;;;;;30.90;93.30;;;;;;6275429;22;19903;-86
2023/07/09 08:10:18;;;;;;;;;;;32.30;91.50;;;;;;6275373;22;19949;-86
2023/07/09 08:12:44;;;;;;;;;;;33.60;87.40;;;;;;6302213;22;20303;-86
2023/07/09 08:15:10;;;;;;;;;;;34.00;84.60;;;;;;6277833;22;19914;-86
2023/07/09 08:17:35;;;;;;;;;;;34.80;81.10;;;;;;6279213;22;19903;-86
2023/07/09 08:20:01;;;;;;;;;;;35.30;77.30;;;;;;6251841;22;20346;-87
2023/07/09 08:22:27;;;;;;;;;;;36.00;75.60;;;;;;6277009;22;19907;-86
2023/07/09 08:24:52;;;;;;;;;;;35.70;73.90;;;;;;6278549;22;19903;-86
2023/07/09 08:27:18;;;;;;;;;;;35.70;71.30;;;;;;6251691;22;20273;-86
2023/07/09 08:29:44;;;;;;;;;;;35.60;69.00;;;;;;6276964;22;20330;-86
2023/07/09 08:32:11;;;;;;;;;;;36.10;70.80;;;;;;6251984;22;19907;-87
2023/07/09 08:34:38;;;;;;;;;;;36.70;69.00;;;;;;6277684;22;19911;-86
2023/07/09 08:37:03;;;;;;;;;;;37.30;67.20;;;;;;6277108;22;19949;-87
2023/07/09 08:39:29;;;;;;;;;;;37.20;65.00;;;;;;6277322;22;19953;-86
2023/07/09 08:42:02;;;;;;;;;;;37.60;64.00;;;;;;6277640;22;20380;-87
2023/07/09 08:44:34;;;;;;;;;;;37.80;63.00;;;;;;6277762;22;19910;-86
2023/07/09 08:47:14;;;;;;;;;;;37.20;62.10;;;;;;6251890;22;19903;-86
2023/07/09 08:49:46;;;;;;;;;;;36.40;63.50;;;;;;6251951;22;19960;-86
2023/07/09 08:52:41;;;;;;;;;;;36.40;64.40;;;;;;6277436;22;19986;-86
2023/07/09 08:55:21;;;;;;;;;;;36.20;64.20;;;;;;6232755;22;19946;-86
2023/07/09 08:57:50;;;;;;;;;;;36.50;64.10;;;;;;6278846;22;20363;-86
2023/07/09 09:00:18;;;;;;;;;;;36.30;64.50;;;;;;6277127;22;19978;-86
2023/07/09 09:02:50;;;;;;;;;;;36.70;62.10;;;;;;6277287;22;19953;-86
2023/07/09 09:05:18;;;;;;;;;;;36.60;62.80;;;;;;6277337;22;19903;-87
2023/07/09 09:07:44;;;;;;;;;;;37.20;63.00;;;;;;6277411;22;19910;-87
2023/07/09 09:10:13;;;;;;;;;;;36.30;62.40;;;;;;6276686;22;19907;-86
2023/07/09 09:12:42;;;;;;;;;;;36.30;61.50;;;;;;6277204;22;19903;-86
2023/07/09 09:15:14;;;;;;;;;;;36.10;62.00;;;;;;6276706;22;19903;-86
2023/07/09 09:17:40;;;;;;;;;;;36.10;62.30;;;;;;6276981;22;19927;-86
2023/07/09 09:20:22;;;;;;;;;;;36.50;60.90;;;;;;6277575;22;19903;-86
2023/07/09 09:23:06;;;;;;;;;;;36.30;59.50;;;;;;6302871;22;20216;-87
2023/07/09 09:25:32;;;;;;;;;;;36.50;58.00;;;;;;6251281;22;19938;-86
2023/07/09 09:28:02;;;;;;;;;;;37.00;57.90;;;;;;6302389;22;19909;-87
2023/07/09 09:30:28;;;;;;;;;;;37.10;58.20;;;;;;6276975;22;19939;-86
2023/07/09 09:32:55;;;;;;;;;;;37.80;58.80;;;;;;6276839;22;19899;-87
2023/07/09 09:35:26;;;;;;;;;;;38.20;57.00;;;;;;6277127;22;19933;-86
2023/07/09 09:37:52;;;;;;;;;;;38.40;56.60;;;;;;6303404;22;20227;-87
2023/07/09 09:40:23;;;;;;;;;;;37.70;56.40;;;;;;6277220;22;19903;-87
2023/07/09 09:42:49;;;;;;;;;;;37.60;55.60;;;;;;6276845;22;19903;-86
2023/07/09 09:45:16;;;;;;;;;;;36.60;58.30;;;;;;6302907;22;19951;-86
2023/07/09 09:47:43;;;;;;;;;;;36.70;58.00;;;;;;6276760;22;19903;-86
2023/07/09 09:50:19;;;;;;;;;;;36.60;58.30;;;;;;6278322;22;19910;-86
2023/07/09 09:52:46;;;;;;;;;;;36.60;57.90;;;;;;6276763;22;19986;-86
2023/07/09 09:55:16;;;;;;;;;;;36.20;58.70;;;;;;6250909;22;19900;-86
2023/07/09 09:57:47;;;;;;;;;;;36.00;57.90;;;;;;6276369;22;19903;-86
2023/07/09 10:00:16;;;;;;;;;;;36.50;58.80;;;;;;6276426;22;20323;-87
2023/07/09 10:02:41;;;;;;;;;;;37.30;57.60;;;;;;6276508;22;19911;-87
2023/07/09 10:05:19;;;;;;;;;;;38.00;57.40;;;;;;6276728;22;19903;-87
2023/07/09 10:07:53;;;;;;;;;;;38.50;55.90;;;;;;6277299;22;19907;-87
2023/07/09 10:10:21;;;;;;;;;;;38.50;54.30;;;;;;6251412;22;19983;-87
2023/07/09 10:12:50;;;;;;;;;;;37.30;55.90;;;;;;6276698;22;19903;-87
2023/07/09 10:15:19;;;;;;;;;;;36.90;52.70;;;;;;6276496;22;19961;-87
2023/07/09 10:17:50;;;;;;;;;;;36.50;53.30;;;;;;6250768;22;20378;-87
2023/07/09 10:20:25;;;;;;;;;;;37.00;54.20;;;;;;6251243;22;19910;-87
2023/07/09 10:22:57;;;;;;;;;;;36.50;51.80;;;;;;6250647;22;19911;-87
2023/07/09 10:25:37;;;;;;;;;;;36.00;53.30;;;;;;6251285;22;19903;-88
2023/07/09 10:28:08;;;;;;;;;;;35.40;53.90;;;;;;6276415;22;19968;-86
2023/07/09 10:30:49;;;;;;;;;;;35.50;55.40;;;;;;6277953;22;19904;-87
2023/07/09 10:33:27;;;;;;;;;;;35.90;54.80;;;;;;6250799;22;19965;-87
2023/07/09 10:35:55;;;;;;;;;;;35.50;54.20;;;;;;6250564;22;19903;-87
2023/07/09 10:38:25;;;;;;;;;;;35.30;53.00;;;;;;6250919;22;19910;-87
2023/07/09 10:40:56;;;;;;;;;;;35.10;55.70;;;;;;6276642;22;19974;-87
2023/07/09 10:43:51;;;;;;;;;;;35.10;55.30;;;;;;6276131;22;19982;-87
2023/07/09 10:46:20;;;;;;;;;;;35.20;53.90;;;;;;6169608;22;20295;-87
2023/07/09 10:48:47;;;;;;;;;;;35.20;54.80;;;;;;6276148;22;20307;-86
2023/07/09 10:51:31;;;;;;;;;;;35.00;54.80;;;;;;6276205;22;20584;-87
2023/07/09 10:53:58;;;;;;;;;;;35.10;54.10;;;;;;6276104;22;20289;-86
2023/07/09 10:56:29;;;;;;;;;;;35.30;54.70;;;;;;6302306;22;19903;-87
2023/07/09 10:59:06;;;;;;;;;;;35.50;54.00;;;;;;6276176;22;20242;-87
2023/07/09 11:01:34;;;;;;;;;;;35.90;54.00;;;;;;6301737;22;19907;-87
2023/07/09 11:04:03;;;;;;;;;;;36.10;53.30;;;;;;6276534;22;19903;-87
2023/07/09 11:06:33;;;;;;;;;;;36.60;52.80;;;;;;6251130;22;19899;-87
2023/07/09 11:09:00;;;;;;;;;;;36.60;54.50;;;;;;6276190;22;19907;-87
2023/07/09 11:11:33;;;;;;;;;;;36.60;53.60;;;;;;6301938;22;19946;-87
2023/07/09 11:14:01;;;;;;;;;;;36.40;54.50;;;;;;6276061;22;19938;-87
2023/07/09 11:16:29;;;;;;;;;;;36.50;54.10;;;;;;6250505;22;19899;-86
2023/07/09 11:19:00;;;;;;;;;;;36.20;54.10;;;;;;6301939;22;19986;-85
2023/07/09 11:21:26;;;;;;;;;;;36.20;54.30;;;;;;6275970;22;19981;-86
2023/07/09 11:24:01;;;;;;;;;;;35.50;52.10;;;;;;6275538;22;20377;-87
2023/07/09 11:26:28;;;;;;;;;;;35.60;52.70;;;;;;6277254;22;19907;-86
2023/07/09 11:28:55;;;;;;;;;;;35.90;53.20;;;;;;6275799;22;19903;-86
2023/07/09 11:31:30;;;;;;;;;;;35.50;53.40;;;;;;6301527;22;19953;-87
2023/07/09 11:34:01;;;;;;;;;;;35.50;54.20;;;;;;6275645;22;19907;-87
2023/07/09 11:36:30;;;;;;;;;;;35.70;52.70;;;;;;6275176;22;20605;-87
2023/07/09 11:38:56;;;;;;;;;;;35.40;54.50;;;;;;6275681;22;20002;-86
2023/07/09 11:41:30;;;;;;;;;;;35.70;53.70;;;;;;6275700;22;19947;-87
2023/07/09 11:44:22;;;;;;;;;;;35.90;51.40;;;;;;6275897;22;20008;-87
2023/07/09 11:46:54;;;;;;;;;;;36.30;51.90;;;;;;6245808;22;19915;-87
2023/07/09 11:49:23;;;;;;;;;;;36.60;51.40;;;;;;6275948;22;19912;-87
2023/07/09 11:51:52;;;;;;;;;;;36.50;52.70;;;;;;6275875;22;19903;-87
2023/07/09 11:54:18;;;;;;;;;;;36.50;51.80;;;;;;6275734;22;19908;-87
2023/07/09 11:56:53;;;;;;;;;;;36.70;50.60;;;;;;6275494;22;20005;-87
2023/07/09 11:59:18;;;;;;;;;;;36.70;49.60;;;;;;6275743;22;19915;-87
2023/07/09 12:01:45;;;;;;;;;;;37.00;50.50;;;;;;6275399;22;20359;-88
2023/07/09 12:04:18;;;;;;;;;;;36.70;51.20;;;;;;6275602;22;19911;-87
2023/07/09 12:06:45;;;;;;;;;;;36.70;50.30;;;;;;6275665;22;19933;-87
2023/07/09 12:09:15;;;;;;;;;;;36.40;51.70;;;;;;6275654;22;19907;-87
2023/07/09 12:11:43;;;;;;;;;;;36.20;51.10;;;;;;6276338;22;19907;-87
2023/07/09 12:14:14;;;;;;;;;;;36.30;50.80;;;;;;6275679;22;19914;-87
2023/07/09 12:16:41;;;;;;;;;;;36.50;50.80;;;;;;6275649;22;19907;-87
2023/07/09 12:19:08;;;;;;;;;;;36.60;51.00;;;;;;6275284;22;19915;-87
2023/07/09 12:21:36;;;;;;;;;;;36.60;49.40;;;;;;6300886;22;20289;-87
2023/07/09 12:24:02;;;;;;;;;;;36.30;48.20;;;;;;6275469;22;19904;-87
2023/07/09 12:26:30;;;;;;;;;;;36.20;49.40;;;;;;6276265;22;20270;-87
2023/07/09 12:28:57;;;;;;;;;;;36.80;49.10;;;;;;6250206;22;19956;-87
2023/07/09 12:31:29;;;;;;;;;;;37.20;48.20;;;;;;6276202;22;19914;-87
2023/07/09 12:33:56;;;;;;;;;;;37.30;48.40;;;;;;6276025;22;19990;-87
2023/07/09 12:36:23;;;;;;;;;;;37.60;48.30;;;;;;6250030;22;20033;-87
2023/07/09 12:38:50;;;;;;;;;;;37.80;48.50;;;;;;6275707;22;20278;-87
2023/07/09 12:41:27;;;;;;;;;;;38.20;48.10;;;;;;6301617;22;19911;-87
2023/07/09 12:43:54;;;;;;;;;;;37.90;48.30;;;;;;6275781;22;19915;-87
2023/07/09 12:46:23;;;;;;;;;;;37.90;46.60;;;;;;6275870;22;19904;-87
2023/07/09 12:48:52;;;;;;;;;;;38.40;47.30;;;;;;6275777;22;19911;-87
2023/07/09 12:51:28;;;;;;;;;;;38.20;47.40;;;;;;6301499;22;19907;-87
2023/07/09 12:54:12;;;;;;;;;;;37.90;46.60;;;;;;6275496;22;19912;-87
2023/07/09 12:56:37;;;;;;;;;;;38.20;47.70;;;;;;6275674;22;19953;-87
2023/07/09 12:59:14;;;;;;;;;;;38.40;47.00;;;;;;6250917;22;19903;-87
2023/07/09 13:01:39;;;;;;;;;;;38.50;47.50;;;;;;6303355;22;20235;-86
2023/07/09 13:04:10;;;;;;;;;;;38.00;47.60;;;;;;6277383;22;19907;-87
2023/07/09 13:06:36;;;;;;;;;;;38.00;46.40;;;;;;6277475;22;19913;-87
2023/07/09 13:09:10;;;;;;;;;;;38.40;47.60;;;;;;6251773;22;20374;-87
2023/07/09 13:11:36;;;;;;;;;;;38.50;46.00;;;;;;6252002;22;19982;-87
2023/07/09 13:14:04;;;;;;;;;;;38.90;46.50;;;;;;6303408;22;20372;-87
2023/07/09 13:16:30;;;;;;;;;;;38.60;45.90;;;;;;6303599;22;19907;-86
2023/07/09 13:18:56;;;;;;;;;;;38.00;46.80;;;;;;6277291;22;19907;-86
2023/07/09 13:21:22;;;;;;;;;;;37.40;46.30;;;;;;6303286;22;19934;-87
2023/07/09 13:23:48;;;;;;;;;;;37.70;45.50;;;;;;6277539;22;19985;-87
2023/07/09 13:26:15;;;;;;;;;;;37.90;46.20;;;;;;6277446;22;19911;-88
2023/07/09 13:28:42;;;;;;;;;;;38.70;45.60;;;;;;6303737;22;19911;-87
2023/07/09 13:31:09;;;;;;;;;;;39.00;46.60;;;;;;6303150;22;20338;-86
2023/07/09 13:33:36;;;;;;;;;;;38.80;47.00;;;;;;6302543;22;19915;-87
2023/07/09 13:36:02;;;;;;;;;;;38.70;46.20;;;;;;6302722;22;19914;-88
2023/07/09 13:38:28;;;;;;;;;;;38.90;44.10;;;;;;6277492;22;19908;-87
2023/07/09 13:40:56;;;;;;;;;;;38.80;45.30;;;;;;6276603;22;19953;-87
2023/07/09 13:43:47;;;;;;;;;;;38.50;46.30;;;;;;6277195;22;19907;-87
2023/07/09 13:46:13;;;;;;;;;;;38.50;46.80;;;;;;6277367;22;19965;-87
2023/07/09 13:48:39;;;;;;;;;;;38.60;46.70;;;;;;6277973;22;19907;-86
2023/07/09 13:51:17;;;;;;;;;;;39.20;46.60;;;;;;6277042;22;20331;-85
2023/07/09 13:53:42;;;;;;;;;;;39.10;46.80;;;;;;6277014;22;19914;-87
2023/07/09 13:56:08;;;;;;;;;;;38.80;45.70;;;;;;6250874;22;19908;-87
2023/07/09 13:58:34;;;;;;;;;;;38.50;45.30;;;;;;6250889;22;19930;-88
2023/07/09 14:01:06;;;;;;;;;;;38.20;45.30;;;;;;6277014;22;20235;-87
2023/07/09 14:03:33;;;;;;;;;;;39.00;46.60;;;;;;6277235;22;19913;-85
2023/07/09 14:05:59;;;;;;;;;;;39.70;45.70;;;;;;6277236;22;19903;-86
2023/07/09 14:08:24;;;;;;;;;;;39.80;44.80;;;;;;6277104;22;19930;-86
2023/07/09 14:10:50;;;;;;;;;;;39.60;44.30;;;;;;6275797;22;19914;-86
2023/07/09 14:13:18;;;;;;;;;;;39.70;43.30;;;;;;6277321;22;19912;-87
2023/07/09 14:15:44;;;;;;;;;;;39.60;43.40;;;;;;6277064;22;19914;-86
2023/07/09 14:18:20;;;;;;;;;;;39.60;43.90;;;;;;6302737;22;19907;-86
2023/07/09 14:20:46;;;;;;;;;;;39.90;44.40;;;;;;6302092;22;19911;-86
2023/07/09 14:23:13;;;;;;;;;;;40.20;44.60;;;;;;6276612;22;19903;-86
2023/07/09 14:25:39;;;;;;;;;;;40.10;43.10;;;;;;6276645;22;19903;-87
2023/07/09 14:28:08;;;;;;;;;;;40.10;43.30;;;;;;6276232;22;20212;-85
2023/07/09 14:30:34;;;;;;;;;;;40.10;43.50;;;;;;6276637;22;19903;-86